• Join FlightAware (Why Join?)
  • Login
  • US Flag 
04:22AM EDT


 

Airport Tracker/Info


-or-


 

Live Flight TrackerFlight Track Log ✈ SAS268 ✈ 30-Apr-2012 ✈ ENBR / BGO - ENGM / OSL

Flight Track Log - Related Links

Times and Time Zones

All times are in EDT time to prevent confusion due to time zone crossing. See the SAS268 flight status page for this flight to view local times or setup timezone preferences in your user account.

Time Position Orientation Groundspeed Altitude Reporting Facility
EDT Latitude Longitude Course Direction KTS MPH feet Rate Location/Type
08:04AM 60.2936 5.2580 89° East  Level Estimated
08:05AM 60.2943 5.4172 90° East  Level Estimated
08:06AM 60.2948 5.5765 90° East  Level Estimated
08:07AM 60.2951 5.7358 90° East  Level Estimated
08:08AM 60.2952 5.8951 90° East  Level Estimated
08:09AM 60.2951 6.0544 90° East  Level Estimated
08:10AM 60.2949 6.2137 90° East  Level Estimated
08:11AM 60.2944 6.3729 90° East  Level Estimated
08:12AM 60.2938 6.5322 91° East  Level Estimated
08:13AM 60.2929 6.6915 91° East  Level Estimated
08:14AM 60.2919 6.8507 91° East  Level Estimated
08:15AM 60.2907 7.0100 91° East  Level Estimated
08:16AM 60.2893 7.1692 91° East  Level Estimated
08:17AM 60.2877 7.3285 91° East  Level Estimated
08:18AM 60.2859 7.4876 91° East  Level Estimated
08:19AM 60.2839 7.6468 92° East  Level Estimated
08:20AM 60.2817 7.8060 92° East  Level Estimated
08:21AM 60.2794 7.9651 92° East  Level Estimated
08:22AM 60.2768 8.1243 92° East  Level Estimated
08:23AM 60.2741 8.2834 92° East  Level Estimated
08:24AM 60.2712 8.4424 92° East  Level Estimated
08:25AM 60.2681 8.6015 92° East  Level Estimated
08:26AM 60.2647 8.7605 92° East  Level Estimated
08:27AM 60.2612 8.9194 93° East  Level Estimated
08:28AM 60.2575 9.0784 93° East  Level Estimated
08:29AM 60.2537 9.2373 93° East  Level Estimated
08:30AM 60.2496 9.3961 93° East  Level Estimated
08:31AM 60.2453 9.5550 93° East  Level Estimated
08:32AM 60.2409 9.7137 93° East  Level Estimated
08:33AM 60.2363 9.8725 93° East  Level Estimated
08:34AM 60.2314 10.0312 94° East  Level Estimated
08:35AM 60.2264 10.1898 94° East  Level Estimated
08:36AM 60.2212 10.3484 94° East  Level Estimated
08:37AM 60.2158 10.5070 94° East  Level Estimated
08:38AM 60.2102 10.6654 94° East  Level Estimated